sensor_id;sensor_type;location;lat;lon;timestamp;pressure;altitude;pressure_sealevel;temperature;humidity
34177;BME280;20450;49.074;9.158;2023-04-04T00:00:45;100758.31;;;2.20;58.06
34177;BME280;20450;49.074;9.158;2023-04-04T00:03:14;100750.00;;;2.13;58.63
34177;BME280;20450;49.074;9.158;2023-04-04T00:05:42;100759.97;;;2.11;58.88
34177;BME280;20450;49.074;9.158;2023-04-04T00:08:12;100747.59;;;2.10;59.05
34177;BME280;20450;49.074;9.158;2023-04-04T00:10:39;100747.31;;;2.13;58.59
34177;BME280;20450;49.074;9.158;2023-04-04T00:13:06;100744.94;;;2.10;57.53
34177;BME280;20450;49.074;9.158;2023-04-04T00:15:37;100745.47;;;2.04;58.82
34177;BME280;20450;49.074;9.158;2023-04-04T00:18:04;100743.78;;;2.03;59.11
34177;BME280;20450;49.074;9.158;2023-04-04T00:20:32;100731.97;;;1.96;59.45
34177;BME280;20450;49.074;9.158;2023-04-04T00:22:59;100737.56;;;1.93;59.83
34177;BME280;20450;49.074;9.158;2023-04-04T00:25:27;100739.78;;;1.88;59.20
34177;BME280;20450;49.074;9.158;2023-04-04T00:27:54;100734.03;;;1.83;60.96
34177;BME280;20450;49.074;9.158;2023-04-04T00:30:21;100735.72;;;1.84;60.48
34177;BME280;20450;49.074;9.158;2023-04-04T00:32:54;100740.03;;;1.75;60.72
34177;BME280;20450;49.074;9.158;2023-04-04T00:35:21;100736.78;;;1.72;60.12
34177;BME280;20450;49.074;9.158;2023-04-04T00:37:48;100731.31;;;1.73;59.45
34177;BME280;20450;49.074;9.158;2023-04-04T00:40:18;100729.75;;;1.71;59.73
34177;BME280;20450;49.074;9.158;2023-04-04T00:42:46;100726.84;;;1.74;60.61
34177;BME280;20450;49.074;9.158;2023-04-04T00:45:13;100724.19;;;1.74;59.67
34177;BME280;20450;49.074;9.158;2023-04-04T00:47:42;100716.19;;;1.74;60.16
34177;BME280;20450;49.074;9.158;2023-04-04T00:50:09;100715.59;;;1.70;59.38
34177;BME280;20450;49.074;9.158;2023-04-04T00:52:37;100723.97;;;1.66;61.44
34177;BME280;20450;49.074;9.158;2023-04-04T00:55:04;100721.00;;;1.59;60.83
34177;BME280;20450;49.074;9.158;2023-04-04T00:57:33;100724.50;;;1.60;61.12
34177;BME280;20450;49.074;9.158;2023-04-04T01:00:03;100724.03;;;1.55;61.70
34177;BME280;20450;49.074;9.158;2023-04-04T01:02:31;100719.72;;;1.54;61.04
34177;BME280;20450;49.074;9.158;2023-04-04T01:04:59;100710.72;;;1.55;62.64
34177;BME280;20450;49.074;9.158;2023-04-04T01:07:28;100712.38;;;1.46;61.40
34177;BME280;20450;49.074;9.158;2023-04-04T01:09:56;100713.75;;;1.41;62.58
34177;BME280;20450;49.074;9.158;2023-04-04T01:12:26;100718.94;;;1.42;61.99
34177;BME280;20450;49.074;9.158;2023-04-04T01:14:54;100716.53;;;1.39;62.42
34177;BME280;20450;49.074;9.158;2023-04-04T01:17:23;100720.06;;;1.40;62.06
34177;BME280;20450;49.074;9.158;2023-04-04T01:19:58;100712.34;;;1.37;61.94
34177;BME280;20450;49.074;9.158;2023-04-04T01:22:37;100715.56;;;1.40;64.09
34177;BME280;20450;49.074;9.158;2023-04-04T01:25:07;100714.28;;;1.35;62.38
34177;BME280;20450;49.074;9.158;2023-04-04T01:27:39;100714.53;;;1.32;62.52
34177;BME280;20450;49.074;9.158;2023-04-04T01:30:13;100716.34;;;1.31;62.85
34177;BME280;20450;49.074;9.158;2023-04-04T01:32:44;100709.59;;;1.27;62.68
34177;BME280;20450;49.074;9.158;2023-04-04T01:35:22;100711.91;;;1.21;63.10
34177;BME280;20450;49.074;9.158;2023-04-04T01:38:02;100708.81;;;1.16;63.51
34177;BME280;20450;49.074;9.158;2023-04-04T01:40:43;100713.28;;;1.15;63.38
34177;BME280;20450;49.074;9.158;2023-04-04T01:43:16;100707.72;;;1.18;63.42
34177;BME280;20450;49.074;9.158;2023-04-04T01:45:44;100704.06;;;1.19;63.32
34177;BME280;20450;49.074;9.158;2023-04-04T01:48:13;100701.53;;;1.18;62.79
34177;BME280;20450;49.074;9.158;2023-04-04T01:50:42;100700.59;;;1.19;62.15
34177;BME280;20450;49.074;9.158;2023-04-04T01:53:09;100701.28;;;1.21;62.03
34177;BME280;20450;49.074;9.158;2023-04-04T01:55:36;100700.47;;;1.20;62.23
34177;BME280;20450;49.074;9.158;2023-04-04T01:58:03;100704.06;;;1.19;61.16
34177;BME280;20450;49.074;9.158;2023-04-04T02:00:33;100698.88;;;1.18;62.79
34177;BME280;20450;49.074;9.158;2023-04-04T02:03:02;100704.19;;;1.18;61.32
34177;BME280;20450;49.074;9.158;2023-04-04T02:05:29;100698.88;;;1.18;61.69
34177;BME280;20450;49.074;9.158;2023-04-04T02:07:56;100693.69;;;1.16;61.86
34177;BME280;20450;49.074;9.158;2023-04-04T02:10:31;100698.63;;;1.21;61.12
34177;BME280;20450;49.074;9.158;2023-04-04T02:12:58;100698.19;;;1.16;60.95
34177;BME280;20450;49.074;9.158;2023-04-04T02:15:25;100695.78;;;1.13;62.74
34177;BME280;20450;49.074;9.158;2023-04-04T02:17:54;100690.00;;;1.08;61.44
34177;BME280;20450;49.074;9.158;2023-04-04T02:20:22;100698.69;;;1.10;61.53
34177;BME280;20450;49.074;9.158;2023-04-04T02:22:50;100699.91;;;1.06;62.98
34177;BME280;20450;49.074;9.158;2023-04-04T02:25:17;100700.88;;;1.05;62.10
34177;BME280;20450;49.074;9.158;2023-04-04T02:27:44;100693.38;;;1.10;62.36
34177;BME280;20450;49.074;9.158;2023-04-04T02:30:12;100691.41;;;1.12;62.93
34177;BME280;20450;49.074;9.158;2023-04-04T02:33:05;100690.91;;;1.18;62.87
34177;BME280;20450;49.074;9.158;2023-04-04T02:35:33;100698.34;;;1.24;62.63
34177;BME280;20450;49.074;9.158;2023-04-04T02:38:00;100696.81;;;1.21;62.20
34177;BME280;20450;49.074;9.158;2023-04-04T02:40:36;100692.13;;;1.14;62.02
34177;BME280;20450;49.074;9.158;2023-04-04T02:43:04;100689.72;;;1.11;62.14
34177;BME280;20450;49.074;9.158;2023-04-04T02:45:31;100684.16;;;1.14;62.67
34177;BME280;20450;49.074;9.158;2023-04-04T02:48:11;100690.91;;;1.18;62.75
34177;BME280;20450;49.074;9.158;2023-04-04T02:50:45;100689.47;;;1.14;62.81
34177;BME280;20450;49.074;9.158;2023-04-04T02:53:13;100694.53;;;1.17;62.60
34177;BME280;20450;49.074;9.158;2023-04-04T02:55:40;100684.38;;;1.22;62.62
34177;BME280;20450;49.074;9.158;2023-04-04T02:58:07;100689.34;;;1.15;62.37
34177;BME280;20450;49.074;9.158;2023-04-04T03:01:00;100683.19;;;1.35;73.46
34177;BME280;20450;49.074;9.158;2023-04-04T03:03:36;100685.91;;;1.04;63.41
34177;BME280;20450;49.074;9.158;2023-04-04T03:06:03;100693.16;;;1.02;63.73
34177;BME280;20450;49.074;9.158;2023-04-04T03:08:36;100681.53;;;1.03;63.50
34177;BME280;20450;49.074;9.158;2023-04-04T03:15:14;100684.53;;;1.09;64.33
34177;BME280;20450;49.074;9.158;2023-04-04T03:17:41;100677.94;;;1.04;63.77
34177;BME280;20450;49.074;9.158;2023-04-04T03:20:11;100681.28;;;1.06;63.99
34177;BME280;20450;49.074;9.158;2023-04-04T03:22:38;100673.19;;;1.07;64.71
34177;BME280;20450;49.074;9.158;2023-04-04T03:25:06;100674.63;;;1.11;63.54
34177;BME280;20450;49.074;9.158;2023-04-04T03:27:33;100673.19;;;1.07;63.83
34177;BME280;20450;49.074;9.158;2023-04-04T03:30:00;100672.28;;;0.97;63.97
34177;BME280;20450;49.074;9.158;2023-04-04T03:32:31;100679.66;;;0.94;64.87
34177;BME280;20450;49.074;9.158;2023-04-04T03:34:58;100672.22;;;0.88;64.60
34177;BME280;20450;49.074;9.158;2023-04-04T03:37:28;100673.13;;;0.77;64.66
34177;BME280;20450;49.074;9.158;2023-04-04T03:39:55;100671.47;;;0.65;64.68
34177;BME280;20450;49.074;9.158;2023-04-04T03:42:22;100671.84;;;0.61;65.67
34177;BME280;20450;49.074;9.158;2023-04-04T03:44:49;100669.34;;;0.48;65.22
34177;BME280;20450;49.074;9.158;2023-04-04T03:47:26;100671.16;;;0.48;66.07
34177;BME280;20450;49.074;9.158;2023-04-04T03:49:54;100676.28;;;0.40;65.23
34177;BME280;20450;49.074;9.158;2023-04-04T03:52:22;100679.44;;;0.34;65.13
34177;BME280;20450;49.074;9.158;2023-04-04T03:54:52;100676.16;;;0.30;65.57
34177;BME280;20450;49.074;9.158;2023-04-04T03:57:19;100675.34;;;0.30;65.38
34177;BME280;20450;49.074;9.158;2023-04-04T03:59:47;100670.97;;;0.29;65.95
34177;BME280;20450;49.074;9.158;2023-04-04T04:02:14;100679.19;;;0.26;65.57
34177;BME280;20450;49.074;9.158;2023-04-04T04:04:40;100678.25;;;0.27;66.36
34177;BME280;20450;49.074;9.158;2023-04-04T04:07:08;100684.50;;;0.26;66.01
34177;BME280;20450;49.074;9.158;2023-04-04T04:09:35;100686.22;;;0.27;66.45
34177;BME280;20450;49.074;9.158;2023-04-04T04:12:03;100688.88;;;0.27;65.96
34177;BME280;20450;49.074;9.158;2023-04-04T04:14:30;100680.91;;;0.27;66.20
34177;BME280;20450;49.074;9.158;2023-04-04T04:16:59;100678.50;;;0.24;66.95
34177;BME280;20450;49.074;9.158;2023-04-04T04:19:27;100685.00;;;0.20;66.19
34177;BME280;20450;49.074;9.158;2023-04-04T04:21:55;100686.47;;;0.24;67.13
34177;BME280;20450;49.074;9.158;2023-04-04T04:24:22;100683.31;;;0.19;66.68
34177;BME280;20450;49.074;9.158;2023-04-04T04:26:49;100686.34;;;0.14;66.15
34177;BME280;20450;49.074;9.158;2023-04-04T04:29:17;100674.88;;;0.14;65.95
34177;BME280;20450;49.074;9.158;2023-04-04T04:31:44;100682.13;;;0.12;67.23
34177;BME280;20450;49.074;9.158;2023-04-04T04:34:11;100686.72;;;0.10;67.54
34177;BME280;20450;49.074;9.158;2023-04-04T04:36:40;100685.50;;;0.14;66.50
34177;BME280;20450;49.074;9.158;2023-04-04T04:39:17;100680.19;;;0.14;67.05
34177;BME280;20450;49.074;9.158;2023-04-04T04:41:59;100682.59;;;0.17;67.62
34177;BME280;20450;49.074;9.158;2023-04-04T04:44:28;100688.88;;;0.16;67.99
34177;BME280;20450;49.074;9.158;2023-04-04T04:46:56;100684.63;;;0.24;67.85
34177;BME280;20450;49.074;9.158;2023-04-04T04:49:23;100689.31;;;0.32;68.78
34177;BME280;20450;49.074;9.158;2023-04-04T04:51:51;100685.78;;;0.42;67.05
34177;BME280;20450;49.074;9.158;2023-04-04T04:54:19;100690.72;;;0.47;67.34
34177;BME280;20450;49.074;9.158;2023-04-04T04:56:52;100683.25;;;0.41;66.30
34177;BME280;20450;49.074;9.158;2023-04-04T04:59:20;100683.75;;;0.46;67.28
34177;BME280;20450;49.074;9.158;2023-04-04T05:01:50;100691.34;;;0.50;67.07
34177;BME280;20450;49.074;9.158;2023-04-04T05:04:18;100689.63;;;0.49;66.79
34177;BME280;20450;49.074;9.158;2023-04-04T05:06:58;100685.03;;;0.51;66.19
34177;BME280;20450;49.074;9.158;2023-04-04T05:09:25;100689.00;;;0.57;66.51
34177;BME280;20450;49.074;9.158;2023-04-04T05:11:54;100690.59;;;0.59;66.85
34177;BME280;20450;49.074;9.158;2023-04-04T05:14:27;100688.88;;;1.10;65.12
34177;BME280;20450;49.074;9.158;2023-04-04T05:16:57;100692.22;;;1.53;63.99
34177;BME280;20450;49.074;9.158;2023-04-04T05:19:28;100688.03;;;1.81;62.56
34177;BME280;20450;49.074;9.158;2023-04-04T05:21:57;100689.53;;;2.14;61.14
34177;BME280;20450;49.074;9.158;2023-04-04T05:24:32;100695.53;;;2.55;60.44
34177;BME280;20450;49.074;9.158;2023-04-04T05:27:00;100674.63;;;3.08;59.13
34177;BME280;20450;49.074;9.158;2023-04-04T05:29:33;100679.94;;;3.73;56.64
34177;BME280;20450;49.074;9.158;2023-04-04T05:32:03;100678.72;;;4.22;55.49
34177;BME280;20450;49.074;9.158;2023-04-04T05:34:31;100686.69;;;4.76;52.69
34177;BME280;20450;49.074;9.158;2023-04-04T05:36:59;100685.69;;;5.12;50.78
34177;BME280;20450;49.074;9.158;2023-04-04T05:39:26;100683.75;;;3.70;54.45
34177;BME280;20450;49.074;9.158;2023-04-04T05:42:05;100691.91;;;2.85;55.62
34177;BME280;20450;49.074;9.158;2023-04-04T05:44:35;100685.97;;;3.10;56.03
34177;BME280;20450;49.074;9.158;2023-04-04T05:47:06;100682.81;;;3.52;55.52
34177;BME280;20450;49.074;9.158;2023-04-04T05:49:34;100682.50;;;4.01;53.44
34177;BME280;20450;49.074;9.158;2023-04-04T05:52:01;100687.75;;;4.83;50.90
34177;BME280;20450;49.074;9.158;2023-04-04T05:54:30;100691.44;;;4.64;50.16
34177;BME280;20450;49.074;9.158;2023-04-04T05:57:00;100686.22;;;5.41;49.70
34177;BME280;20450;49.074;9.158;2023-04-04T05:59:47;100689.59;;;5.68;47.62
34177;BME280;20450;49.074;9.158;2023-04-04T06:02:16;100698.06;;;6.57;47.21
34177;BME280;20450;49.074;9.158;2023-04-04T06:04:51;100691.06;;;6.14;47.00
34177;BME280;20450;49.074;9.158;2023-04-04T06:07:27;100682.50;;;7.72;43.74
34177;BME280;20450;49.074;9.158;2023-04-04T06:09:54;100675.22;;;8.97;41.33
34177;BME280;20450;49.074;9.158;2023-04-04T06:12:22;100676.63;;;9.81;39.00
34177;BME280;20450;49.074;9.158;2023-04-04T06:14:49;100688.25;;;9.30;39.07
34177;BME280;20450;49.074;9.158;2023-04-04T06:17:21;100690.97;;;8.08;40.64
34177;BME280;20450;49.074;9.158;2023-04-04T06:19:48;100687.06;;;9.33;39.09
34177;BME280;20450;49.074;9.158;2023-04-04T06:22:15;100691.63;;;9.10;39.60
34177;BME280;20450;49.074;9.158;2023-04-04T06:24:46;100690.84;;;7.93;41.12
34177;BME280;20450;49.074;9.158;2023-04-04T06:27:14;100693.31;;;8.11;40.49
34177;BME280;20450;49.074;9.158;2023-04-04T06:29:41;100682.03;;;8.54;40.28
34177;BME280;20450;49.074;9.158;2023-04-04T06:32:08;100679.94;;;9.54;37.46
34177;BME280;20450;49.074;9.158;2023-04-04T06:34:41;100686.19;;;9.55;37.04
34177;BME280;20450;49.074;9.158;2023-04-04T06:37:11;100683.00;;;9.51;37.01
34177;BME280;20450;49.074;9.158;2023-04-04T06:39:46;100683.13;;;9.21;37.99
34177;BME280;20450;49.074;9.158;2023-04-04T06:42:21;100694.25;;;8.34;38.59
34177;BME280;20450;49.074;9.158;2023-04-04T06:44:50;100679.25;;;8.93;37.56
34177;BME280;20450;49.074;9.158;2023-04-04T06:47:17;100689.84;;;8.41;38.02
34177;BME280;20450;49.074;9.158;2023-04-04T06:49:47;100692.69;;;9.01;37.43
34177;BME280;20450;49.074;9.158;2023-04-04T06:52:15;100686.06;;;8.20;37.73
34177;BME280;20450;49.074;9.158;2023-04-04T06:54:43;100692.28;;;7.09;40.13
34177;BME280;20450;49.074;9.158;2023-04-04T06:57:10;100688.25;;;7.13;40.17
34177;BME280;20450;49.074;9.158;2023-04-04T06:59:36;100686.25;;;7.15;40.69
34177;BME280;20450;49.074;9.158;2023-04-04T07:02:04;100681.56;;;7.96;37.89
34177;BME280;20450;49.074;9.158;2023-04-04T07:04:33;100682.78;;;9.38;35.71
34177;BME280;20450;49.074;9.158;2023-04-04T07:07:01;100676.94;;;10.30;34.54
34177;BME280;20450;49.074;9.158;2023-04-04T07:09:28;100690.41;;;7.58;37.74
34177;BME280;20450;49.074;9.158;2023-04-04T07:11:55;100686.81;;;9.20;34.41
34177;BME280;20450;49.074;9.158;2023-04-04T07:14:23;100682.22;;;7.03;39.10
34177;BME280;20450;49.074;9.158;2023-04-04T07:16:50;100675.94;;;8.30;37.17
34177;BME280;20450;49.074;9.158;2023-04-04T07:19:17;100685.06;;;8.51;36.61
34177;BME280;20450;49.074;9.158;2023-04-04T07:21:44;100675.34;;;9.92;35.81
34177;BME280;20450;49.074;9.158;2023-04-04T07:24:12;100688.84;;;8.73;36.15
34177;BME280;20450;49.074;9.158;2023-04-04T07:26:41;100676.00;;;9.05;36.55
34177;BME280;20450;49.074;9.158;2023-04-04T07:29:08;100684.38;;;7.40;37.89
34177;BME280;20450;49.074;9.158;2023-04-04T07:31:35;100684.53;;;8.64;36.87
34177;BME280;20450;49.074;9.158;2023-04-04T07:34:03;100691.63;;;6.99;39.68
34177;BME280;20450;49.074;9.158;2023-04-04T07:36:31;100683.88;;;7.44;39.39
34177;BME280;20450;49.074;9.158;2023-04-04T07:38:58;100697.16;;;7.46;38.93
34177;BME280;20450;49.074;9.158;2023-04-04T07:46:18;100684.44;;;8.02;36.98
34177;BME280;20450;49.074;9.158;2023-04-04T07:48:46;100682.03;;;7.13;40.27
34177;BME280;20450;49.074;9.158;2023-04-04T07:51:14;100678.88;;;8.04;38.38
34177;BME280;20450;49.074;9.158;2023-04-04T07:53:41;100680.13;;;8.93;35.96
34177;BME280;20450;49.074;9.158;2023-04-04T07:56:08;100665.78;;;8.48;36.86
34177;BME280;20450;49.074;9.158;2023-04-04T07:58:35;100668.84;;;8.90;35.41
34177;BME280;20450;49.074;9.158;2023-04-04T08:01:02;100687.91;;;7.56;37.60
34177;BME280;20450;49.074;9.158;2023-04-04T08:03:31;100688.59;;;7.10;40.17
34177;BME280;20450;49.074;9.158;2023-04-04T08:05:58;100671.03;;;7.78;38.89
34177;BME280;20450;49.074;9.158;2023-04-04T08:08:25;100665.09;;;10.02;35.45
34177;BME280;20450;49.074;9.158;2023-04-04T08:10:57;100664.25;;;10.81;32.65
34177;BME280;20450;49.074;9.158;2023-04-04T08:13:25;100666.97;;;8.68;37.13
34177;BME280;20450;49.074;9.158;2023-04-04T08:15:52;100669.47;;;9.00;35.31
34177;BME280;20450;49.074;9.158;2023-04-04T08:18:19;100660.72;;;9.20;34.26
34177;BME280;20450;49.074;9.158;2023-04-04T08:20:47;100671.88;;;7.87;37.84
34177;BME280;20450;49.074;9.158;2023-04-04T08:23:14;100666.22;;;8.29;36.66
34177;BME280;20450;49.074;9.158;2023-04-04T08:25:42;100669.94;;;7.57;37.61
34177;BME280;20450;49.074;9.158;2023-04-04T08:28:09;100667.38;;;7.71;38.65
34177;BME280;20450;49.074;9.158;2023-04-04T08:34:23;100671.81;;;8.03;38.33
34177;BME280;20450;49.074;9.158;2023-04-04T08:36:51;100667.31;;;7.95;38.51
34177;BME280;20450;49.074;9.158;2023-04-04T08:39:18;100674.59;;;7.71;35.19
34177;BME280;20450;49.074;9.158;2023-04-04T08:41:45;100679.19;;;7.38;36.72
34177;BME280;20450;49.074;9.158;2023-04-04T08:44:16;100672.44;;;7.58;36.37
34177;BME280;20450;49.074;9.158;2023-04-04T08:46:46;100673.78;;;8.25;34.84
34177;BME280;20450;49.074;9.158;2023-04-04T08:49:17;100688.03;;;7.71;35.31
34177;BME280;20450;49.074;9.158;2023-04-04T08:51:46;100674.34;;;8.04;34.86
34177;BME280;20450;49.074;9.158;2023-04-04T08:54:17;100670.09;;;9.24;32.21
34177;BME280;20450;49.074;9.158;2023-04-04T09:01:37;100667.13;;;8.44;34.16
34177;BME280;20450;49.074;9.158;2023-04-04T09:04:06;100668.25;;;9.25;34.16
34177;BME280;20450;49.074;9.158;2023-04-04T09:06:35;100651.63;;;8.46;35.47
34177;BME280;20450;49.074;9.158;2023-04-04T09:09:03;100668.84;;;8.67;35.75
34177;BME280;20450;49.074;9.158;2023-04-04T09:11:33;100684.31;;;7.88;35.62
34177;BME280;20450;49.074;9.158;2023-04-04T09:14:02;100673.09;;;7.60;36.25
34177;BME280;20450;49.074;9.158;2023-04-04T09:16:30;100665.22;;;8.14;34.71
34177;BME280;20450;49.074;9.158;2023-04-04T09:18:57;100664.50;;;7.81;34.61
34177;BME280;20450;49.074;9.158;2023-04-04T09:21:25;100682.72;;;6.99;37.28
34177;BME280;20450;49.074;9.158;2023-04-04T09:23:58;100670.34;;;6.40;37.95
34177;BME280;20450;49.074;9.158;2023-04-04T09:26:26;100680.53;;;6.94;36.01
34177;BME280;20450;49.074;9.158;2023-04-04T09:28:56;100673.97;;;6.81;37.26
34177;BME280;20450;49.074;9.158;2023-04-04T09:31:23;100660.28;;;7.86;35.75
34177;BME280;20450;49.074;9.158;2023-04-04T09:33:50;100670.25;;;6.82;38.30
34177;BME280;20450;49.074;9.158;2023-04-04T09:36:18;100667.09;;;7.10;37.81
34177;BME280;20450;49.074;9.158;2023-04-04T09:38:52;100664.91;;;7.46;34.59
34177;BME280;20450;49.074;9.158;2023-04-04T09:41:25;100666.75;;;7.37;35.51
34177;BME280;20450;49.074;9.158;2023-04-04T09:43:52;100660.72;;;7.19;36.34
34177;BME280;20450;49.074;9.158;2023-04-04T09:46:24;100657.88;;;7.05;37.11
34177;BME280;20450;49.074;9.158;2023-04-04T09:48:54;100644.19;;;7.62;35.36
34177;BME280;20450;49.074;9.158;2023-04-04T09:51:22;100659.53;;;8.00;37.35
34177;BME280;20450;49.074;9.158;2023-04-04T09:53:49;100647.63;;;8.42;34.63
34177;BME280;20450;49.074;9.158;2023-04-04T09:56:18;100665.94;;;6.89;36.96
34177;BME280;20450;49.074;9.158;2023-04-04T09:58:46;100661.03;;;7.40;35.95
34177;BME280;20450;49.074;9.158;2023-04-04T10:01:32;100649.69;;;8.62;34.92
34177;BME280;20450;49.074;9.158;2023-04-04T10:04:02;100658.66;;;8.55;34.85
34177;BME280;20450;49.074;9.158;2023-04-04T10:06:31;100661.06;;;7.95;35.03
34177;BME280;20450;49.074;9.158;2023-04-04T10:09:02;100653.91;;;8.26;35.99
34177;BME280;20450;49.074;9.158;2023-04-04T10:11:30;100652.56;;;8.61;34.95
34177;BME280;20450;49.074;9.158;2023-04-04T10:13:59;100645.75;;;9.69;33.55
34177;BME280;20450;49.074;9.158;2023-04-04T10:16:32;100649.28;;;10.99;32.94
34177;BME280;20450;49.074;9.158;2023-04-04T10:19:00;100638.47;;;12.57;28.74
34177;BME280;20450;49.074;9.158;2023-04-04T10:24:49;100644.53;;;10.66;32.52
34177;BME280;20450;49.074;9.158;2023-04-04T10:27:16;100653.38;;;10.24;31.49
34177;BME280;20450;49.074;9.158;2023-04-04T10:29:43;100647.38;;;8.82;35.21
34177;BME280;20450;49.074;9.158;2023-04-04T10:32:22;100641.97;;;9.27;33.16
34177;BME280;20450;49.074;9.158;2023-04-04T10:34:57;100640.09;;;9.79;31.22
34177;BME280;20450;49.074;9.158;2023-04-04T10:37:33;100636.28;;;8.99;32.60
34177;BME280;20450;49.074;9.158;2023-04-04T10:44:44;100627.03;;;9.97;32.86
34177;BME280;20450;49.074;9.158;2023-04-04T10:47:15;100621.19;;;9.93;32.36
34177;BME280;20450;49.074;9.158;2023-04-04T10:49:44;100633.56;;;10.02;32.42
34177;BME280;20450;49.074;9.158;2023-04-04T10:52:16;100635.50;;;9.65;32.56
34177;BME280;20450;49.074;9.158;2023-04-04T10:54:46;100628.63;;;8.35;34.08
34177;BME280;20450;49.074;9.158;2023-04-04T10:57:16;100626.41;;;10.10;34.10
34177;BME280;20450;49.074;9.158;2023-04-04T10:59:57;100621.56;;;10.55;31.72
34177;BME280;20450;49.074;9.158;2023-04-04T11:02:47;100618.44;;;10.73;30.29
34177;BME280;20450;49.074;9.158;2023-04-04T11:05:21;100604.47;;;12.48;28.93
34177;BME280;20450;49.074;9.158;2023-04-04T11:07:56;100605.00;;;12.97;28.61
34177;BME280;20450;49.074;9.158;2023-04-04T11:10:36;100614.56;;;10.61;30.01
34177;BME280;20450;49.074;9.158;2023-04-04T11:13:09;100614.13;;;10.07;31.90
34177;BME280;20450;49.074;9.158;2023-04-04T11:15:59;100608.22;;;11.65;29.93
34177;BME280;20450;49.074;9.158;2023-04-04T11:18:47;100613.06;;;8.76;34.81
34177;BME280;20450;49.074;9.158;2023-04-04T11:21:15;100603.81;;;8.25;36.26
34177;BME280;20450;49.074;9.158;2023-04-04T11:24:14;100612.97;;;9.43;33.84
34177;BME280;20450;49.074;9.158;2023-04-04T11:26:41;100606.09;;;9.55;34.81
34177;BME280;20450;49.074;9.158;2023-04-04T11:29:09;100618.19;;;8.40;34.36
34177;BME280;20450;49.074;9.158;2023-04-04T11:31:48;100591.59;;;10.50;33.53
34177;BME280;20450;49.074;9.158;2023-04-04T11:34:28;100596.91;;;11.89;30.30
34177;BME280;20450;49.074;9.158;2023-04-04T11:36:57;100608.03;;;9.32;32.23
34177;BME280;20450;49.074;9.158;2023-04-04T11:39:26;100607.13;;;9.69;35.12
34177;BME280;20450;49.074;9.158;2023-04-04T11:41:56;100591.97;;;11.93;31.19
34177;BME280;20450;49.074;9.158;2023-04-04T11:44:27;100598.53;;;12.25;29.34
34177;BME280;20450;49.074;9.158;2023-04-04T11:51:36;100593.50;;;11.74;30.91
34177;BME280;20450;49.074;9.158;2023-04-04T11:54:12;100586.81;;;10.52;31.73
34177;BME280;20450;49.074;9.158;2023-04-04T11:56:41;100575.16;;;12.11;29.69
34177;BME280;20450;49.074;9.158;2023-04-04T11:59:17;100578.50;;;13.57;28.28
34177;BME280;20450;49.074;9.158;2023-04-04T12:01:59;100590.38;;;10.53;30.35
34177;BME280;20450;49.074;9.158;2023-04-04T12:04:31;100570.03;;;9.05;34.68
34177;BME280;20450;49.074;9.158;2023-04-04T12:07:08;100577.00;;;9.80;33.74
34177;BME280;20450;49.074;9.158;2023-04-04T12:09:49;100572.59;;;11.34;30.63
34177;BME280;20450;49.074;9.158;2023-04-04T12:12:41;100574.81;;;10.55;33.30
34177;BME280;20450;49.074;9.158;2023-04-04T12:15:22;100562.28;;;10.12;33.60
34177;BME280;20450;49.074;9.158;2023-04-04T12:18:34;100569.94;;;9.79;34.02
34177;BME280;20450;49.074;9.158;2023-04-04T12:21:26;100568.63;;;9.31;34.50
34177;BME280;20450;49.074;9.158;2023-04-04T12:24:16;100572.84;;;9.11;35.58
34177;BME280;20450;49.074;9.158;2023-04-04T12:26:48;100568.50;;;9.39;35.74
34177;BME280;20450;49.074;9.158;2023-04-04T12:29:21;100558.00;;;9.73;36.74
34177;BME280;20450;49.074;9.158;2023-04-04T12:31:55;100563.47;;;8.48;37.68
34177;BME280;20450;49.074;9.158;2023-04-04T12:34:31;100563.03;;;8.36;36.99
34177;BME280;20450;49.074;9.158;2023-04-04T12:37:09;100561.94;;;8.23;36.64
34177;BME280;20450;49.074;9.158;2023-04-04T12:39:49;100558.16;;;8.54;36.15
34177;BME280;20450;49.074;9.158;2023-04-04T12:42:20;100547.53;;;8.98;36.64
34177;BME280;20450;49.074;9.158;2023-04-04T12:45:00;100541.06;;;9.07;34.69
34177;BME280;20450;49.074;9.158;2023-04-04T12:47:30;100555.13;;;8.94;35.24
34177;BME280;20450;49.074;9.158;2023-04-04T12:49:57;100549.88;;;8.11;36.15
34177;BME280;20450;49.074;9.158;2023-04-04T12:52:27;100543.66;;;8.02;36.40
34177;BME280;20450;49.074;9.158;2023-04-04T12:55:04;100547.00;;;8.43;36.28
34177;BME280;20450;49.074;9.158;2023-04-04T12:57:34;100542.28;;;8.67;36.56
34177;BME280;20450;49.074;9.158;2023-04-04T13:00:05;100535.47;;;8.94;36.12
34177;BME280;20450;49.074;9.158;2023-04-04T13:02:34;100533.63;;;9.09;36.60
34177;BME280;20450;49.074;9.158;2023-04-04T13:05:05;100542.59;;;9.24;35.60
34177;BME280;20450;49.074;9.158;2023-04-04T13:07:37;100538.47;;;9.28;35.14
34177;BME280;20450;49.074;9.158;2023-04-04T13:10:07;100543.38;;;8.28;36.34
34177;BME280;20450;49.074;9.158;2023-04-04T13:12:55;100529.25;;;7.95;35.88
34177;BME280;20450;49.074;9.158;2023-04-04T13:15:34;100519.53;;;8.25;35.74
34177;BME280;20450;49.074;9.158;2023-04-04T13:18:16;100528.25;;;7.57;36.45
34177;BME280;20450;49.074;9.158;2023-04-04T13:20:44;100529.44;;;7.63;37.03
34177;BME280;20450;49.074;9.158;2023-04-04T13:23:12;100527.06;;;7.98;38.13
34177;BME280;20450;49.074;9.158;2023-04-04T13:25:41;100506.75;;;7.57;36.21
34177;BME280;20450;49.074;9.158;2023-04-04T13:28:08;100517.31;;;7.67;36.47
34177;BME280;20450;49.074;9.158;2023-04-04T13:30:36;100517.69;;;7.56;37.84
34177;BME280;20450;49.074;9.158;2023-04-04T13:33:03;100510.00;;;7.45;37.32
34177;BME280;20450;49.074;9.158;2023-04-04T13:35:32;100511.56;;;7.70;38.94
34177;BME280;20450;49.074;9.158;2023-04-04T13:37:59;100502.94;;;7.82;38.65
34177;BME280;20450;49.074;9.158;2023-04-04T13:40:26;100502.94;;;7.82;36.85
34177;BME280;20450;49.074;9.158;2023-04-04T13:42:57;100501.00;;;7.68;35.85
34177;BME280;20450;49.074;9.158;2023-04-04T13:45:25;100511.59;;;7.62;37.51
34177;BME280;20450;49.074;9.158;2023-04-04T13:47:52;100494.66;;;7.61;38.49